createdAt,value
2023-02-01T00:00:14.594Z,98593.58
2023-02-01T00:05:37.477Z,98580.80
2023-02-01T00:10:40.293Z,98586.78
2023-02-01T00:15:43.093Z,98589.47
2023-02-01T00:20:48.924Z,98590.95
2023-02-01T00:25:51.882Z,98592.94
2023-02-01T00:30:59.085Z,98593.05
2023-02-01T00:36:07.715Z,98588.69
2023-02-01T00:41:14.120Z,98588.08
2023-02-01T00:46:18.741Z,98590.02
2023-02-01T00:51:24.444Z,98592.66
2023-02-01T00:56:28.811Z,98594.05
2023-02-01T01:01:32.021Z,98597.36
2023-02-01T01:06:35.101Z,98598.33
2023-02-01T01:11:39.424Z,98603.03
2023-02-01T01:16:42.214Z,98602.08
2023-02-01T01:21:45.032Z,98598.55
2023-02-01T01:26:47.874Z,98592.76
2023-02-01T01:31:50.701Z,98591.58
2023-02-01T01:36:53.476Z,98584.23
2023-02-01T01:41:56.195Z,98584.38
2023-02-01T01:47:01.610Z,98573.36
2023-02-01T01:52:05.107Z,98564.60
2023-02-01T01:57:15.716Z,98570.71
2023-02-01T02:02:18.619Z,98573.93
2023-02-01T02:07:28.436Z,98577.95
2023-02-01T02:12:31.237Z,98574.81
2023-02-01T02:17:55.488Z,98578.54
2023-02-01T02:23:11.522Z,98578.31
2023-02-01T02:28:44.863Z,98576.91
2023-02-01T02:34:06.201Z,98584.29
2023-02-01T02:39:22.444Z,98587.35
2023-02-01T02:45:06.095Z,98592.51
2023-02-01T02:50:46.345Z,98592.30
2023-02-01T02:55:52.515Z,98583.17
2023-02-01T03:01:15.203Z,98573.55
2023-02-01T03:06:19.829Z,98571.46
2023-02-01T03:11:22.757Z,98574.85
2023-02-01T03:16:31.473Z,98576.79
2023-02-01T03:21:40.935Z,98579.02
2023-02-01T03:26:49.741Z,98584.69
2023-02-01T03:31:53.121Z,98585.41
2023-02-01T03:37:03.592Z,98581.65
2023-02-01T03:42:14.547Z,98580.48
2023-02-01T03:47:21.965Z,98576.19
2023-02-01T03:52:32.022Z,98578.23
2023-02-01T03:57:47.250Z,98572.56
2023-02-01T04:02:50.389Z,98569.78
2023-02-01T04:07:53.210Z,98568.35
2023-02-01T04:12:56.028Z,98573.12
2023-02-01T04:17:58.823Z,98575.51
2023-02-01T04:23:03.674Z,98579.45
2023-02-01T04:28:10.039Z,98576.17
2023-02-01T04:33:16.461Z,98581.66
2023-02-01T04:38:19.315Z,98584.58
2023-02-01T04:43:22.080Z,98589.58
2023-02-01T04:48:25.187Z,98585.33
2023-02-01T04:53:28.056Z,98580.67
2023-02-01T04:58:30.964Z,98582.23
2023-02-01T05:03:34.481Z,98577.51
2023-02-01T05:08:38.895Z,98577.34
2023-02-01T05:13:50.593Z,98573.71
2023-02-01T05:18:53.817Z,98568.87
2023-02-01T05:24:11.559Z,98567.94
2023-02-01T05:29:15.039Z,98562.55
2023-02-01T05:34:18.220Z,98562.16
2023-02-01T05:39:21.079Z,98569.70
2023-02-01T05:44:23.812Z,98585.48
2023-02-01T05:49:26.548Z,98592.67
2023-02-01T05:54:29.323Z,98596.42
2023-02-01T05:59:32.102Z,98588.02
2023-02-01T06:04:35.131Z,98587.51
2023-02-01T06:09:38.291Z,98598.65
2023-02-01T06:14:41.122Z,98605.52
2023-02-01T06:19:45.136Z,98602.77
2023-02-01T06:24:48.004Z,98606.20
2023-02-01T06:29:50.787Z,98607.38
2023-02-01T06:34:53.599Z,98600.81
2023-02-01T06:39:56.376Z,98603.91
2023-02-01T06:44:59.207Z,98596.33
2023-02-01T06:50:02.044Z,98598.17
2023-02-01T06:55:05.180Z,98595.72
2023-02-01T07:00:08.918Z,98595.02
2023-02-01T07:05:11.678Z,98594.68
2023-02-01T07:10:14.487Z,98591.73
2023-02-01T07:15:17.323Z,98589.16
2023-02-01T07:20:22.729Z,98590.34
2023-02-01T07:25:25.807Z,98589.00
2023-02-01T07:30:28.792Z,98595.90
2023-02-01T07:35:31.763Z,98596.39
2023-02-01T07:40:34.885Z,98599.05
2023-02-01T07:45:38.298Z,98602.95
2023-02-01T07:50:41.107Z,98603.16
2023-02-01T07:55:44.309Z,98594.98
2023-02-01T08:01:03.711Z,98596.51
2023-02-01T08:06:08.174Z,98595.61
2023-02-01T08:11:11.010Z,98595.70
2023-02-01T08:16:17.101Z,98600.64
2023-02-01T08:21:24.732Z,98602.45
2023-02-01T08:26:27.697Z,98605.25
2023-02-01T08:31:31.422Z,98610.18
2023-02-01T08:36:34.254Z,98616.29
2023-02-01T08:41:37.105Z,98620.63
2023-02-01T08:46:39.990Z,98618.98
2023-02-01T08:51:42.968Z,98619.55
2023-02-01T08:56:45.981Z,98626.31
2023-02-01T09:01:48.884Z,98617.85
2023-02-01T09:06:51.790Z,98620.71
2023-02-01T09:11:55.873Z,98627.32
2023-02-01T09:16:58.694Z,98623.61
2023-02-01T09:22:04.148Z,98622.58
2023-02-01T09:27:07.135Z,98617.52
2023-02-01T09:32:10.292Z,98619.18
2023-02-01T09:37:13.384Z,98620.10
2023-02-01T09:42:47.677Z,98627.43
2023-02-01T09:48:03.615Z,98625.79
2023-02-01T09:53:14.196Z,98627.05
2023-02-01T09:58:43.524Z,98630.77
2023-02-01T10:03:47.181Z,98636.89
2023-02-01T10:09:11.763Z,98638.59
2023-02-01T10:14:56.423Z,98632.27
2023-02-01T10:20:21.914Z,98621.06
2023-02-01T10:25:39.201Z,98621.18
2023-02-01T10:30:47.146Z,98626.41
2023-02-01T10:35:58.225Z,98625.96
2023-02-01T10:41:10.741Z,98620.27
2023-02-01T10:46:14.958Z,98622.63
2023-02-01T10:51:25.528Z,98624.13
2023-02-01T10:56:30.326Z,98626.70
2023-02-01T11:01:41.909Z,98630.94
2023-02-01T11:07:04.324Z,98628.81
2023-02-01T11:12:28.415Z,98619.27
2023-02-01T11:17:40.622Z,98618.88
2023-02-01T11:22:54.741Z,98628.38
2023-02-01T11:28:03.470Z,98622.02
2023-02-01T11:33:15.206Z,98621.95
2023-02-01T11:38:29.618Z,98625.17
2023-02-01T11:43:32.487Z,98615.45
2023-02-01T11:48:35.706Z,98618.02
2023-02-01T11:54:10.297Z,98615.95
2023-02-01T11:59:24.739Z,98618.77
2023-02-01T12:05:01.532Z,98620.23
2023-02-01T12:10:30.005Z,98619.59
2023-02-01T12:21:33.908Z,98609.63
2023-02-01T12:26:45.811Z,98613.48
2023-02-01T12:31:51.873Z,98619.84
2023-02-01T12:37:13.373Z,98624.45
2023-02-01T12:42:22.409Z,98631.86
2023-02-01T12:47:38.645Z,98632.40
2023-02-01T12:52:48.857Z,98636.10
2023-02-01T12:57:56.464Z,98637.95
2023-02-01T13:03:32.640Z,98636.44
2023-02-01T13:08:54.829Z,98644.61
2023-02-01T13:14:47.931Z,98642.20
2023-02-01T13:19:57.124Z,98641.20
2023-02-01T13:25:14.462Z,98640.37
2023-02-01T13:30:26.262Z,98644.20
2023-02-01T13:35:41.284Z,98640.92
2023-02-01T13:41:12.620Z,98640.23
2023-02-01T13:46:17.286Z,98634.33
2023-02-01T13:51:44.514Z,98627.20
2023-02-01T13:56:47.745Z,98623.31
2023-02-01T14:01:50.698Z,98620.23
2023-02-01T14:06:59.510Z,98628.05
2023-02-01T14:12:40.074Z,98627.88
2023-02-01T14:17:42.941Z,98626.47
2023-02-01T14:22:48.472Z,98619.23
2023-02-01T14:27:54.802Z,98622.56
2023-02-01T14:32:58.901Z,98615.34
2023-02-01T14:38:08.466Z,98619.00
2023-02-01T14:43:23.655Z,98623.05
2023-02-01T14:48:36.030Z,98639.48
2023-02-01T14:53:40.066Z,98643.87
2023-02-01T14:58:46.712Z,98650.95
2023-02-01T15:04:05.096Z,98651.48
2023-02-01T15:09:13.742Z,98654.46
2023-02-01T15:14:16.598Z,98659.48
2023-02-01T15:19:19.404Z,98673.12
2023-02-01T15:24:28.310Z,98674.82
2023-02-01T15:29:33.586Z,98688.74
2023-02-01T15:34:50.860Z,98693.00
2023-02-01T15:40:05.079Z,98694.20
2023-02-01T15:45:18.549Z,98701.48
2023-02-01T15:50:25.344Z,98705.56
2023-02-01T15:55:43.826Z,98700.09
2023-02-01T16:01:00.792Z,98704.91
2023-02-01T16:06:23.613Z,98703.33
2023-02-01T16:11:31.560Z,98708.74
2023-02-01T16:16:34.555Z,98710.91
2023-02-01T16:21:37.511Z,98709.84
2023-02-01T16:26:40.616Z,98709.02
2023-02-01T16:31:43.814Z,98709.37
2023-02-01T16:36:58.230Z,98711.73
2023-02-01T16:42:12.307Z,98709.22
2023-02-01T16:47:22.458Z,98707.10
2023-02-01T16:52:28.325Z,98710.52
2023-02-01T16:57:31.182Z,98703.98
2023-02-01T17:02:36.940Z,98703.66
2023-02-01T17:07:41.565Z,98702.67
2023-02-01T17:12:44.641Z,98707.33
2023-02-01T17:17:47.563Z,98714.94
2023-02-01T17:22:51.786Z,98718.33
2023-02-01T17:27:54.704Z,98723.28
2023-02-01T17:32:57.752Z,98729.42
2023-02-01T17:38:00.937Z,98738.73
2023-02-01T17:43:04.258Z,98735.38
2023-02-01T17:48:09.985Z,98737.87
2023-02-01T17:53:14.042Z,98740.55
2023-02-01T17:58:17.871Z,98740.31
2023-02-01T18:03:26.803Z,98744.71
2023-02-01T18:08:35.629Z,98747.59
2023-02-01T18:13:38.445Z,98740.64
2023-02-01T18:18:41.978Z,98738.56
2023-02-01T18:23:45.915Z,98736.52
2023-02-01T18:28:49.103Z,98738.41
2023-02-01T18:33:54.008Z,98738.20
2023-02-01T18:38:58.003Z,98736.55
2023-02-01T18:44:00.825Z,98735.30
2023-02-01T18:49:03.755Z,98728.46
2023-02-01T18:54:06.650Z,98724.20
2023-02-01T18:59:12.603Z,98725.56
2023-02-01T19:04:18.990Z,98728.42
2023-02-01T19:09:29.354Z,98731.14
2023-02-01T19:14:32.203Z,98719.27
2023-02-01T19:19:37.862Z,98709.52
2023-02-01T19:24:43.857Z,98706.20
2023-02-01T19:29:47.575Z,98706.96
2023-02-01T19:34:50.825Z,98698.35
2023-02-01T19:39:54.848Z,98702.41
2023-02-01T19:44:59.038Z,98698.91
2023-02-01T19:50:02.397Z,98701.89
2023-02-01T19:55:08.449Z,98704.21
2023-02-01T20:00:17.983Z,98703.84
2023-02-01T20:05:23.327Z,98697.14
2023-02-01T20:10:26.593Z,98700.97
2023-02-01T20:15:30.261Z,98703.71
2023-02-01T20:20:34.076Z,98704.27
2023-02-01T20:25:39.548Z,98705.76
2023-02-01T20:30:44.910Z,98701.54
2023-02-01T20:35:48.269Z,98701.23
2023-02-01T20:40:52.114Z,98700.83
2023-02-01T20:45:55.113Z,98699.65
2023-02-01T20:50:59.057Z,98697.92
2023-02-01T20:56:02.013Z,98702.92
2023-02-01T21:01:06.493Z,98705.20
2023-02-01T21:06:12.010Z,98711.63
2023-02-01T21:11:17.223Z,98707.16
2023-02-01T21:16:22.378Z,98699.64
2023-02-01T21:21:25.155Z,98705.55
2023-02-01T21:26:28.713Z,98709.55
2023-02-01T21:31:31.667Z,98710.61
2023-02-01T21:36:36.190Z,98710.81
2023-02-01T21:41:58.506Z,98706.61
2023-02-01T21:47:01.324Z,98708.35
2023-02-01T21:52:04.329Z,98714.90
2023-02-01T21:57:12.834Z,98710.98
2023-02-01T22:02:17.511Z,98718.48
2023-02-01T22:07:20.452Z,98714.81
2023-02-01T22:12:23.332Z,98708.73
2023-02-01T22:17:27.427Z,98705.73
2023-02-01T22:22:30.230Z,98708.26
2023-02-01T22:28:32.463Z,98708.58
2023-02-01T22:32:55.870Z,98713.16
2023-02-01T22:37:58.673Z,98714.48
2023-02-01T22:43:01.718Z,98712.02
2023-02-01T22:48:05.355Z,98708.72
2023-02-01T22:53:08.195Z,98712.78
2023-02-01T22:58:11.320Z,98709.97
2023-02-01T23:03:14.597Z,98713.58
2023-02-01T23:08:17.403Z,98722.30
2023-02-01T23:13:20.169Z,98721.56
2023-02-01T23:18:23.120Z,98720.33
2023-02-01T23:23:26.964Z,98716.73
2023-02-01T23:28:30.815Z,98710.70
2023-02-01T23:33:33.981Z,98713.81
2023-02-01T23:38:37.157Z,98707.98
2023-02-01T23:43:59.429Z,98705.90
2023-02-01T23:49:04.885Z,98701.45
2023-02-01T23:54:09.583Z,98701.45
2023-02-01T23:59:18.521Z,98697.48
